createdAt,value
2023-03-16T00:01:22.177Z,100.00
2023-03-16T00:03:48.597Z,100.00
2023-03-16T00:06:18.750Z,100.00
2023-03-16T00:08:45.352Z,100.00
2023-03-16T00:11:12.204Z,100.00
2023-03-16T00:13:38.798Z,100.00
2023-03-16T00:16:07.877Z,100.00
2023-03-16T00:18:38.962Z,100.00
2023-03-16T00:21:06.406Z,100.00
2023-03-16T00:23:35.743Z,100.00
2023-03-16T00:26:07.894Z,100.00
2023-03-16T00:28:35.546Z,100.00
2023-03-16T00:31:06.748Z,100.00
2023-03-16T00:33:36.246Z,100.00
2023-03-16T00:36:03.723Z,100.00
2023-03-16T00:38:34.685Z,100.00
2023-03-16T00:41:04.910Z,100.00
2023-03-16T00:43:41.116Z,100.00
2023-03-16T00:46:09.710Z,100.00
2023-03-16T00:48:38.348Z,100.00
2023-03-16T00:51:07.354Z,100.00
2023-03-16T00:53:36.254Z,100.00
2023-03-16T00:56:04.361Z,100.00
2023-03-16T00:58:36.175Z,100.00
2023-03-16T01:01:08.638Z,100.00
2023-03-16T01:03:36.449Z,100.00
2023-03-16T01:06:10.684Z,100.00
2023-03-16T01:08:38.755Z,100.00
2023-03-16T01:11:11.573Z,100.00
2023-03-16T01:13:39.003Z,100.00
2023-03-16T01:16:06.198Z,100.00
2023-03-16T01:18:35.408Z,100.00
2023-03-16T01:21:03.804Z,100.00
2023-03-16T01:23:31.297Z,100.00
2023-03-16T01:25:59.451Z,100.00
2023-03-16T01:28:28.903Z,100.00
2023-03-16T01:31:00.955Z,100.00
2023-03-16T01:33:28.368Z,100.00
2023-03-16T01:36:01.189Z,100.00
2023-03-16T01:38:28.143Z,100.00
2023-03-16T01:40:55.855Z,100.00
2023-03-16T01:43:26.166Z,100.00
2023-03-16T01:46:04.991Z,100.00
2023-03-16T01:49:02.688Z,100.00
2023-03-16T01:51:43.489Z,100.00
2023-03-16T01:54:28.611Z,100.00
2023-03-16T01:57:22.447Z,100.00
2023-03-16T01:59:53.157Z,100.00
2023-03-16T02:02:24.294Z,100.00
2023-03-16T02:04:58.583Z,100.00
2023-03-16T02:07:28.552Z,100.00
2023-03-16T02:10:01.212Z,100.00
2023-03-16T02:12:29.262Z,100.00
2023-03-16T02:14:55.877Z,100.00
2023-03-16T02:17:27.141Z,100.00
2023-03-16T02:20:16.172Z,100.00
2023-03-16T02:22:48.863Z,100.00
2023-03-16T02:25:18.548Z,100.00
2023-03-16T02:28:15.594Z,100.00
2023-03-16T02:30:42.134Z,100.00
2023-03-16T02:33:09.603Z,100.00
2023-03-16T02:35:36.038Z,100.00
2023-03-16T02:38:02.464Z,100.00
2023-03-16T02:40:31.340Z,100.00
2023-03-16T02:43:13.578Z,100.00
2023-03-16T02:45:46.576Z,100.00
2023-03-16T02:48:22.300Z,100.00
2023-03-16T02:50:52.889Z,100.00
2023-03-16T02:53:20.079Z,100.00
2023-03-16T02:55:47.095Z,100.00
2023-03-16T02:58:15.461Z,100.00
2023-03-16T03:00:42.324Z,100.00
2023-03-16T03:03:09.451Z,100.00
2023-03-16T03:05:37.009Z,100.00
2023-03-16T03:08:04.559Z,100.00
2023-03-16T03:10:31.109Z,100.00
2023-03-16T03:12:58.217Z,100.00
2023-03-16T03:15:24.992Z,100.00
2023-03-16T03:17:51.904Z,100.00
2023-03-16T03:20:19.686Z,100.00
2023-03-16T03:22:48.969Z,100.00
2023-03-16T03:25:17.178Z,100.00
2023-03-16T03:27:45.458Z,100.00
2023-03-16T03:30:15.634Z,100.00
2023-03-16T03:32:44.111Z,100.00
2023-03-16T03:35:12.556Z,100.00
2023-03-16T03:37:41.251Z,100.00
2023-03-16T03:40:15.748Z,100.00
2023-03-16T03:42:42.792Z,100.00
2023-03-16T03:45:13.188Z,100.00
2023-03-16T03:47:41.024Z,100.00
2023-03-16T03:50:10.309Z,100.00
2023-03-16T03:52:36.811Z,100.00
2023-03-16T03:55:04.202Z,100.00
2023-03-16T03:57:30.934Z,100.00
2023-03-16T03:59:57.938Z,100.00
2023-03-16T04:02:24.509Z,100.00
2023-03-16T04:04:51.262Z,100.00
2023-03-16T04:07:18.105Z,100.00
2023-03-16T04:09:44.862Z,100.00
2023-03-16T04:12:11.801Z,100.00
2023-03-16T04:14:38.271Z,100.00
2023-03-16T04:17:04.841Z,100.00
2023-03-16T04:19:31.500Z,100.00
2023-03-16T04:21:57.875Z,100.00
2023-03-16T04:24:24.607Z,100.00
2023-03-16T04:26:50.986Z,100.00
2023-03-16T04:29:20.698Z,100.00
2023-03-16T04:31:47.123Z,100.00
2023-03-16T04:34:13.878Z,100.00
2023-03-16T04:36:41.752Z,100.00
2023-03-16T04:39:08.936Z,100.00
2023-03-16T04:41:35.461Z,100.00
2023-03-16T04:44:01.954Z,100.00
2023-03-16T04:46:29.502Z,100.00
2023-03-16T04:48:58.208Z,100.00
2023-03-16T04:51:25.750Z,100.00
2023-03-16T04:53:52.272Z,100.00
2023-03-16T04:56:18.763Z,100.00
2023-03-16T04:58:47.309Z,100.00
2023-03-16T05:01:14.173Z,100.00
2023-03-16T05:03:41.211Z,100.00
2023-03-16T05:06:07.702Z,100.00
2023-03-16T05:08:34.095Z,100.00
2023-03-16T05:11:00.545Z,100.00
2023-03-16T05:13:26.920Z,100.00
2023-03-16T05:15:56.693Z,100.00
2023-03-16T05:18:23.431Z,100.00
2023-03-16T05:20:55.997Z,100.00
2023-03-16T05:23:22.889Z,100.00
2023-03-16T05:25:50.169Z,100.00
2023-03-16T05:28:17.520Z,100.00
2023-03-16T05:30:45.297Z,100.00
2023-03-16T05:33:12.918Z,100.00
2023-03-16T05:35:39.661Z,100.00
2023-03-16T05:38:06.555Z,100.00
2023-03-16T05:40:33.188Z,100.00
2023-03-16T05:43:00.578Z,100.00
2023-03-16T05:45:27.599Z,100.00
2023-03-16T05:47:54.545Z,100.00
2023-03-16T05:50:21.340Z,100.00
2023-03-16T05:52:48.328Z,100.00
2023-03-16T05:55:16.303Z,100.00
2023-03-16T05:57:44.607Z,100.00
2023-03-16T06:00:15.974Z,100.00
2023-03-16T06:02:43.560Z,100.00
2023-03-16T06:05:11.096Z,100.00
2023-03-16T06:07:37.721Z,100.00
2023-03-16T06:10:05.159Z,100.00
2023-03-16T06:12:32.177Z,100.00
2023-03-16T06:14:58.575Z,100.00
2023-03-16T06:17:25.119Z,100.00
2023-03-16T06:19:51.505Z,100.00
2023-03-16T06:22:18.950Z,100.00
2023-03-16T06:24:45.413Z,100.00
2023-03-16T06:27:12.425Z,100.00
2023-03-16T06:29:39.034Z,100.00
2023-03-16T06:32:05.614Z,100.00
2023-03-16T06:34:32.193Z,100.00
2023-03-16T06:36:58.871Z,100.00
2023-03-16T06:39:25.565Z,100.00
2023-03-16T06:41:51.958Z,100.00
2023-03-16T06:44:18.509Z,100.00
2023-03-16T06:46:45.214Z,100.00
2023-03-16T06:49:11.698Z,100.00
2023-03-16T06:51:38.074Z,100.00
2023-03-16T06:54:04.966Z,100.00
2023-03-16T06:56:31.765Z,100.00
2023-03-16T06:58:58.601Z,100.00
2023-03-16T07:01:25.485Z,100.00
2023-03-16T07:03:52.446Z,100.00
2023-03-16T07:06:18.915Z,100.00
2023-03-16T07:08:45.492Z,100.00
2023-03-16T07:11:12.226Z,100.00
2023-03-16T07:13:38.823Z,100.00
2023-03-16T07:16:05.625Z,100.00
2023-03-16T07:18:32.311Z,100.00
2023-03-16T07:20:59.109Z,100.00
2023-03-16T07:23:26.097Z,100.00
2023-03-16T07:25:52.796Z,100.00
2023-03-16T07:28:19.866Z,100.00
2023-03-16T07:31:02.497Z,100.00
2023-03-16T07:33:32.125Z,100.00
2023-03-16T07:35:59.491Z,100.00
2023-03-16T07:38:26.168Z,100.00
2023-03-16T07:40:52.579Z,100.00
2023-03-16T07:43:19.317Z,100.00
2023-03-16T07:45:49.977Z,100.00
2023-03-16T07:48:17.483Z,100.00
2023-03-16T07:50:44.607Z,100.00
2023-03-16T07:53:11.140Z,100.00
2023-03-16T07:55:38.898Z,100.00
2023-03-16T07:58:06.151Z,100.00
2023-03-16T08:00:33.756Z,100.00
2023-03-16T08:03:00.580Z,100.00
2023-03-16T08:05:27.883Z,100.00
2023-03-16T08:07:57.159Z,100.00
2023-03-16T08:10:24.802Z,100.00
2023-03-16T08:12:51.954Z,100.00
2023-03-16T08:15:19.637Z,100.00
2023-03-16T08:17:46.489Z,100.00
2023-03-16T08:20:14.862Z,100.00
2023-03-16T08:22:46.244Z,100.00
2023-03-16T08:25:13.948Z,100.00
2023-03-16T08:27:43.358Z,100.00
2023-03-16T08:30:11.883Z,100.00
2023-03-16T08:32:39.772Z,100.00
2023-03-16T08:35:09.559Z,100.00
2023-03-16T08:37:36.623Z,100.00
2023-03-16T08:40:04.979Z,100.00
2023-03-16T08:42:32.833Z,100.00
2023-03-16T08:45:00.856Z,100.00
2023-03-16T08:47:27.540Z,100.00
2023-03-16T08:49:53.982Z,100.00
2023-03-16T08:52:20.872Z,100.00
2023-03-16T08:55:01.852Z,100.00
2023-03-16T08:57:28.665Z,100.00
2023-03-16T08:59:55.802Z,100.00
2023-03-16T09:02:22.680Z,100.00
2023-03-16T09:04:49.674Z,100.00
2023-03-16T09:07:16.627Z,100.00
2023-03-16T09:09:44.322Z,100.00
2023-03-16T09:12:11.095Z,100.00
2023-03-16T09:14:38.791Z,100.00
2023-03-16T09:17:07.682Z,100.00
2023-03-16T09:19:53.217Z,100.00
2023-03-16T09:22:21.795Z,100.00
2023-03-16T09:24:49.915Z,100.00
2023-03-16T09:27:17.309Z,100.00
2023-03-16T09:29:45.589Z,100.00
2023-03-16T09:32:12.971Z,100.00
2023-03-16T09:34:41.082Z,100.00
2023-03-16T09:37:07.857Z,100.00
2023-03-16T09:39:34.378Z,100.00
2023-03-16T09:42:19.497Z,100.00
2023-03-16T09:45:15.257Z,100.00
2023-03-16T09:47:43.444Z,100.00
2023-03-16T09:50:20.878Z,100.00
2023-03-16T09:52:55.377Z,100.00
2023-03-16T09:55:31.946Z,100.00
2023-03-16T09:58:00.632Z,100.00
2023-03-16T10:00:34.029Z,100.00
2023-03-16T10:03:22.821Z,100.00
2023-03-16T10:06:06.645Z,100.00
2023-03-16T10:08:40.611Z,100.00
2023-03-16T10:11:14.967Z,100.00
2023-03-16T10:13:50.001Z,100.00
2023-03-16T10:16:19.214Z,100.00
2023-03-16T10:18:50.208Z,100.00
2023-03-16T10:21:19.305Z,100.00
2023-03-16T10:23:48.826Z,100.00
2023-03-16T10:26:24.531Z,100.00
2023-03-16T10:28:52.848Z,100.00
2023-03-16T10:31:22.814Z,100.00
2023-03-16T10:33:55.622Z,100.00
2023-03-16T10:36:31.043Z,100.00
2023-03-16T10:39:05.336Z,100.00
2023-03-16T10:41:43.173Z,100.00
2023-03-16T10:44:21.672Z,100.00
2023-03-16T10:46:55.655Z,100.00
2023-03-16T10:49:26.058Z,100.00
2023-03-16T10:51:59.439Z,100.00
2023-03-16T10:54:31.135Z,100.00
2023-03-16T10:56:59.114Z,100.00
2023-03-16T10:59:36.932Z,100.00
2023-03-16T11:02:18.054Z,100.00
2023-03-16T11:04:44.604Z,100.00
2023-03-16T11:07:17.638Z,100.00
2023-03-16T11:09:47.190Z,100.00
2023-03-16T11:12:21.038Z,100.00
2023-03-16T11:14:49.007Z,100.00
2023-03-16T11:17:47.128Z,100.00
2023-03-16T11:20:23.596Z,100.00
2023-03-16T11:22:51.292Z,100.00
2023-03-16T11:25:41.344Z,100.00
2023-03-16T11:28:13.066Z,100.00
2023-03-16T11:31:07.030Z,100.00
2023-03-16T11:33:34.802Z,100.00
2023-03-16T11:36:16.032Z,100.00
2023-03-16T11:39:11.218Z,100.00
2023-03-16T11:42:03.985Z,100.00
2023-03-16T11:44:48.287Z,100.00
2023-03-16T11:47:34.186Z,100.00
2023-03-16T11:50:19.470Z,100.00
2023-03-16T11:52:54.941Z,100.00
2023-03-16T11:55:44.157Z,100.00
2023-03-16T11:58:37.402Z,100.00
2023-03-16T12:01:50.553Z,100.00
2023-03-16T12:04:52.851Z,100.00
2023-03-16T12:07:40.946Z,100.00
2023-03-16T12:10:33.824Z,100.00
2023-03-16T12:13:08.443Z,100.00
2023-03-16T12:15:42.524Z,100.00
2023-03-16T12:18:18.971Z,100.00
2023-03-16T12:20:53.953Z,100.00
2023-03-16T12:23:32.038Z,100.00
2023-03-16T12:26:00.093Z,100.00
2023-03-16T12:28:29.280Z,100.00
2023-03-16T12:30:59.160Z,100.00
2023-03-16T12:33:56.381Z,100.00
2023-03-16T12:36:49.137Z,100.00
2023-03-16T12:39:27.970Z,100.00
2023-03-16T12:42:15.782Z,97.41
2023-03-16T12:44:49.161Z,100.00
2023-03-16T12:47:58.983Z,88.62
2023-03-16T12:50:25.891Z,93.13
2023-03-16T12:52:53.937Z,99.95
2023-03-16T12:55:40.582Z,100.00
2023-03-16T12:58:08.610Z,93.64
2023-03-16T13:00:38.254Z,97.25
2023-03-16T13:03:11.941Z,96.25
2023-03-16T13:05:45.969Z,91.25
2023-03-16T13:08:16.488Z,92.49
2023-03-16T13:10:59.567Z,84.15
2023-03-16T13:13:27.162Z,85.94
2023-03-16T13:16:07.012Z,87.46
2023-03-16T13:18:37.991Z,93.44
2023-03-16T13:21:33.702Z,84.41
2023-03-16T13:24:15.732Z,90.35
2023-03-16T13:27:24.048Z,100.00
2023-03-16T13:29:59.071Z,95.90
2023-03-16T13:32:30.763Z,85.53
2023-03-16T13:35:00.589Z,84.46
2023-03-16T13:37:29.552Z,90.34
2023-03-16T13:40:02.037Z,90.73
2023-03-16T13:42:33.340Z,91.38
2023-03-16T13:45:12.758Z,87.60
2023-03-16T13:47:42.844Z,77.31
2023-03-16T13:50:14.181Z,81.71
2023-03-16T13:52:43.530Z,85.06
2023-03-16T13:55:18.548Z,82.75
2023-03-16T13:57:45.881Z,86.07
2023-03-16T14:00:25.561Z,89.88
2023-03-16T14:02:57.519Z,84.66
2023-03-16T14:05:31.092Z,87.24
2023-03-16T14:08:00.506Z,87.15
2023-03-16T14:10:32.573Z,88.21
2023-03-16T14:13:09.908Z,91.42
2023-03-16T14:15:38.583Z,87.23
2023-03-16T14:18:21.474Z,81.56
2023-03-16T14:20:52.985Z,80.67
2023-03-16T14:23:25.784Z,80.84
2023-03-16T14:25:53.450Z,75.92
2023-03-16T14:28:27.011Z,78.98
2023-03-16T14:31:01.467Z,77.53
2023-03-16T14:33:34.492Z,79.55
2023-03-16T14:36:13.016Z,88.87
2023-03-16T14:38:42.139Z,84.89
2023-03-16T14:41:26.284Z,82.44
2023-03-16T14:44:03.728Z,76.33
2023-03-16T14:46:40.366Z,72.40
2023-03-16T14:49:23.860Z,72.13
2023-03-16T14:51:53.655Z,73.63
2023-03-16T14:54:22.731Z,79.93
2023-03-16T14:56:54.766Z,75.49
2023-03-16T14:59:21.825Z,79.81
2023-03-16T15:01:50.356Z,82.84
2023-03-16T15:04:24.300Z,75.61
2023-03-16T15:06:50.770Z,84.16
2023-03-16T15:09:36.640Z,79.06
2023-03-16T15:12:03.450Z,77.29
2023-03-16T15:14:49.304Z,78.61
2023-03-16T15:17:16.532Z,80.77
2023-03-16T15:19:44.531Z,82.14
2023-03-16T15:22:12.476Z,84.30
2023-03-16T15:24:39.703Z,78.08
2023-03-16T15:27:22.719Z,78.02
2023-03-16T15:29:49.174Z,88.30
2023-03-16T15:32:16.834Z,88.78
2023-03-16T15:34:47.069Z,82.58
2023-03-16T15:37:16.236Z,84.79
2023-03-16T15:39:44.414Z,86.63
2023-03-16T15:42:18.990Z,88.73
2023-03-16T15:44:46.693Z,82.99
2023-03-16T15:47:13.270Z,78.07
2023-03-16T15:49:47.290Z,81.78
2023-03-16T15:52:33.222Z,84.54
2023-03-16T15:55:07.988Z,82.43
2023-03-16T15:57:35.431Z,86.42
2023-03-16T16:00:02.220Z,85.59
2023-03-16T16:02:32.597Z,83.74
2023-03-16T16:04:59.444Z,85.99
2023-03-16T16:07:27.253Z,86.37
2023-03-16T16:09:53.743Z,90.09
2023-03-16T16:12:26.553Z,90.15
2023-03-16T16:14:53.982Z,93.33
2023-03-16T16:17:35.944Z,97.50
2023-03-16T16:20:27.181Z,97.23
2023-03-16T16:22:56.549Z,100.00
2023-03-16T16:25:24.952Z,100.00
2023-03-16T16:27:51.785Z,100.00
2023-03-16T16:30:25.195Z,100.00
2023-03-16T16:32:53.092Z,100.00
2023-03-16T16:35:25.945Z,100.00
2023-03-16T16:37:53.579Z,100.00
2023-03-16T16:40:25.934Z,100.00
2023-03-16T16:42:54.113Z,100.00
2023-03-16T16:45:25.107Z,100.00
2023-03-16T16:47:55.448Z,100.00
2023-03-16T16:50:25.409Z,100.00
2023-03-16T16:52:53.587Z,100.00
2023-03-16T16:55:22.156Z,100.00
2023-03-16T16:57:52.562Z,100.00
2023-03-16T17:00:24.629Z,100.00
2023-03-16T17:02:53.546Z,100.00
2023-03-16T17:05:23.951Z,100.00
2023-03-16T17:07:51.013Z,100.00
2023-03-16T17:10:27.036Z,100.00
2023-03-16T17:12:56.014Z,100.00
2023-03-16T17:15:29.768Z,100.00
2023-03-16T17:18:05.026Z,100.00
2023-03-16T17:20:31.354Z,100.00
2023-03-16T17:22:58.908Z,100.00
2023-03-16T17:25:26.265Z,100.00
2023-03-16T17:27:56.319Z,100.00
2023-03-16T17:30:27.656Z,100.00
2023-03-16T17:32:59.622Z,100.00
2023-03-16T17:35:26.229Z,100.00
2023-03-16T17:37:52.855Z,100.00
2023-03-16T17:40:25.346Z,100.00
2023-03-16T17:42:55.787Z,100.00
2023-03-16T17:45:26.751Z,100.00
2023-03-16T17:47:54.485Z,100.00
2023-03-16T17:50:29.013Z,100.00
2023-03-16T17:52:56.075Z,100.00
2023-03-16T17:55:24.740Z,100.00
2023-03-16T17:57:54.356Z,100.00
2023-03-16T18:00:24.960Z,100.00
2023-03-16T18:02:54.881Z,100.00
2023-03-16T18:05:27.179Z,100.00
2023-03-16T18:07:55.987Z,100.00
2023-03-16T18:10:26.185Z,100.00
2023-03-16T18:12:57.792Z,100.00
2023-03-16T18:15:27.967Z,100.00
2023-03-16T18:17:55.468Z,100.00
2023-03-16T18:20:28.156Z,100.00
2023-03-16T18:22:56.113Z,100.00
2023-03-16T18:25:33.077Z,100.00
2023-03-16T18:28:01.847Z,100.00
2023-03-16T18:30:29.501Z,100.00
2023-03-16T18:32:57.851Z,100.00
2023-03-16T18:35:24.629Z,100.00
2023-03-16T18:37:53.344Z,100.00
2023-03-16T18:40:20.222Z,100.00
2023-03-16T18:42:47.462Z,100.00
2023-03-16T18:45:16.754Z,100.00
2023-03-16T18:47:50.445Z,100.00
2023-03-16T18:50:26.421Z,100.00
2023-03-16T18:52:54.562Z,100.00
2023-03-16T18:55:25.165Z,100.00
2023-03-16T18:57:56.205Z,100.00
2023-03-16T19:00:25.983Z,100.00
2023-03-16T19:02:59.194Z,100.00
2023-03-16T19:05:35.806Z,100.00
2023-03-16T19:08:04.776Z,100.00
2023-03-16T19:10:38.597Z,100.00
2023-03-16T19:13:19.155Z,100.00
2023-03-16T19:15:45.706Z,100.00
2023-03-16T19:18:12.729Z,100.00
2023-03-16T19:20:41.797Z,100.00
2023-03-16T19:23:17.040Z,100.00
2023-03-16T19:25:45.375Z,100.00
2023-03-16T19:28:22.714Z,100.00
2023-03-16T19:30:49.264Z,100.00
2023-03-16T19:33:22.694Z,100.00
2023-03-16T19:35:52.146Z,100.00
2023-03-16T19:38:23.327Z,100.00
2023-03-16T19:40:59.760Z,100.00
2023-03-16T19:43:28.023Z,100.00
2023-03-16T19:45:56.906Z,100.00
2023-03-16T19:48:33.853Z,100.00
2023-03-16T19:51:00.861Z,100.00
2023-03-16T19:53:27.685Z,100.00
2023-03-16T19:55:54.517Z,100.00
2023-03-16T19:58:33.608Z,100.00
2023-03-16T20:01:00.941Z,100.00
2023-03-16T20:03:29.842Z,100.00
2023-03-16T20:05:56.290Z,100.00
2023-03-16T20:08:26.042Z,100.00
2023-03-16T20:10:57.143Z,100.00
2023-03-16T20:13:24.873Z,100.00
2023-03-16T20:15:51.461Z,100.00
2023-03-16T20:18:19.253Z,100.00
2023-03-16T20:20:46.822Z,100.00
2023-03-16T20:23:18.640Z,100.00
2023-03-16T20:25:46.683Z,100.00
2023-03-16T20:28:29.290Z,100.00
2023-03-16T20:30:56.380Z,100.00
2023-03-16T20:33:25.456Z,100.00
2023-03-16T20:35:56.394Z,100.00
2023-03-16T20:38:23.971Z,100.00
2023-03-16T20:40:53.211Z,100.00
2023-03-16T20:43:26.447Z,100.00
2023-03-16T20:45:55.415Z,100.00
2023-03-16T20:48:25.190Z,100.00
2023-03-16T20:50:56.244Z,100.00
2023-03-16T20:53:23.638Z,100.00
2023-03-16T20:55:51.333Z,100.00
2023-03-16T20:58:28.894Z,100.00
2023-03-16T21:00:57.727Z,100.00
2023-03-16T21:03:27.726Z,100.00
2023-03-16T21:05:59.352Z,100.00
2023-03-16T21:08:26.717Z,100.00
2023-03-16T21:10:53.900Z,100.00
2023-03-16T21:13:29.697Z,100.00
2023-03-16T21:15:58.665Z,100.00
2023-03-16T21:18:25.339Z,100.00
2023-03-16T21:20:53.204Z,100.00
2023-03-16T21:23:22.795Z,100.00
2023-03-16T21:26:01.180Z,100.00
2023-03-16T21:28:31.693Z,100.00
2023-03-16T21:30:58.685Z,100.00
2023-03-16T21:33:37.393Z,100.00
2023-03-16T21:36:08.592Z,100.00
2023-03-16T21:38:35.277Z,100.00
2023-03-16T21:41:01.880Z,100.00
2023-03-16T21:43:28.694Z,100.00
2023-03-16T21:45:57.322Z,100.00
2023-03-16T21:48:41.876Z,100.00
2023-03-16T21:51:18.137Z,100.00
2023-03-16T21:53:46.485Z,100.00
2023-03-16T21:56:15.584Z,100.00
2023-03-16T21:58:43.498Z,100.00
2023-03-16T22:01:29.893Z,100.00
2023-03-16T22:04:05.034Z,100.00
2023-03-16T22:06:31.425Z,100.00
2023-03-16T22:09:00.026Z,100.00
2023-03-16T22:11:28.904Z,100.00
2023-03-16T22:13:57.578Z,100.00
2023-03-16T22:16:27.882Z,100.00
2023-03-16T22:18:56.489Z,100.00
2023-03-16T22:21:29.449Z,100.00
2023-03-16T22:23:57.608Z,100.00
2023-03-16T22:26:25.199Z,100.00
2023-03-16T22:28:52.937Z,100.00
2023-03-16T22:31:29.406Z,100.00
2023-03-16T22:33:56.780Z,100.00
2023-03-16T22:36:23.429Z,100.00
2023-03-16T22:38:56.406Z,100.00
2023-03-16T22:41:23.227Z,100.00
2023-03-16T22:43:50.265Z,100.00
2023-03-16T22:46:23.258Z,100.00
2023-03-16T22:48:51.423Z,100.00
2023-03-16T22:51:26.541Z,100.00
2023-03-16T22:53:56.228Z,100.00
2023-03-16T22:56:23.953Z,100.00
2023-03-16T22:58:55.849Z,100.00
2023-03-16T23:01:28.296Z,100.00
2023-03-16T23:03:55.294Z,100.00
2023-03-16T23:06:26.560Z,100.00
2023-03-16T23:08:54.376Z,100.00
2023-03-16T23:11:23.806Z,100.00
2023-03-16T23:13:53.606Z,100.00
2023-03-16T23:16:23.898Z,100.00
2023-03-16T23:18:51.194Z,100.00
2023-03-16T23:21:21.618Z,100.00
2023-03-16T23:24:02.549Z,100.00
2023-03-16T23:26:29.988Z,100.00
2023-03-16T23:28:56.855Z,100.00
2023-03-16T23:31:24.838Z,100.00
2023-03-16T23:33:51.538Z,100.00
2023-03-16T23:36:20.112Z,100.00
2023-03-16T23:38:47.800Z,100.00
2023-03-16T23:41:17.542Z,100.00
2023-03-16T23:43:46.237Z,100.00
2023-03-16T23:46:21.821Z,100.00
2023-03-16T23:48:49.721Z,100.00
2023-03-16T23:51:21.925Z,100.00
2023-03-16T23:53:49.227Z,100.00
2023-03-16T23:56:16.599Z,100.00
2023-03-16T23:58:43.312Z,100.00
